Time;durP1;ratioP1;P1;durP2;ratioP2;P2;SDS_P1;SDS_P2;PMS_P1;PMS_P2;Temp;Humidity;BMP_temperature;BMP_pressure;BME280_temperature;BME280_humidity;BME280_pressure;Samples;Min_cycle;Max_cycle;Signal;HPM_P1;HPM_P2
2022/10/07 00:00:52;;;;;;;8.23;3.45;;;;;;;;;;5028557;28;20039;-65
2022/10/07 00:03:19;;;;;;;7.85;2.90;;;;;;;;;;5029851;28;20055;-63
2022/10/07 00:05:46;;;;;;;9.25;3.15;;;;;;;;;;5027369;28;20053;-64
2022/10/07 00:08:12;;;;;;;8.00;2.67;;;;;;;;;;5029475;28;20036;-62
2022/10/07 00:10:40;;;;;;;5.45;2.40;;;;;;;;;;5028019;28;20506;-63
2022/10/07 00:13:10;;;;;;;7.13;2.60;;;;;;;;;;5028622;28;20067;-64
2022/10/07 00:15:37;;;;;;;6.20;2.80;;;;;;;;;;5027480;28;20183;-62
2022/10/07 00:18:03;;;;;;;6.55;3.13;;;;;;;;;;5028131;28;20252;-63
2022/10/07 00:20:30;;;;;;;5.85;2.90;;;;;;;;;;5029485;28;20582;-64
2022/10/07 00:22:58;;;;;;;7.25;2.92;;;;;;;;;;5029056;28;20152;-63
2022/10/07 00:25:24;;;;;;;7.30;2.67;;;;;;;;;;5027414;28;20048;-64
2022/10/07 00:27:51;;;;;;;6.20;2.67;;;;;;;;;;5028720;28;20049;-64
2022/10/07 00:30:18;;;;;;;8.23;2.78;;;;;;;;;;5021575;28;20042;-64
2022/10/07 00:32:44;;;;;;;7.72;2.63;;;;;;;;;;5026975;28;20088;-65
2022/10/07 00:35:11;;;;;;;9.55;2.75;;;;;;;;;;5029601;28;20048;-63
2022/10/07 00:37:41;;;;;;;8.63;2.97;;;;;;;;;;5027491;28;20064;-64
2022/10/07 00:40:10;;;;;;;7.38;2.88;;;;;;;;;;5031017;28;20037;-63
2022/10/07 00:42:37;;;;;;;8.95;3.00;;;;;;;;;;5028682;28;20025;-62
2022/10/07 00:45:04;;;;;;;6.10;2.75;;;;;;;;;;5028148;28;20038;-62
2022/10/07 00:47:32;;;;;;;8.75;2.78;;;;;;;;;;5010536;28;20040;-64
2022/10/07 00:50:01;;;;;;;5.68;2.65;;;;;;;;;;5029535;28;20073;-63
2022/10/07 00:52:29;;;;;;;4.95;2.60;;;;;;;;;;5029010;28;20693;-63
2022/10/07 00:54:57;;;;;;;10.82;2.60;;;;;;;;;;5028250;28;20076;-65
2022/10/07 00:57:27;;;;;;;5.65;2.50;;;;;;;;;;5029402;28;20045;-65
2022/10/07 00:59:54;;;;;;;11.82;2.72;;;;;;;;;;5030375;28;20037;-62
2022/10/07 01:02:22;;;;;;;6.28;2.55;;;;;;;;;;5027925;28;20799;-66
2022/10/07 01:04:50;;;;;;;8.27;2.63;;;;;;;;;;5028584;28;20057;-68
2022/10/07 01:07:19;;;;;;;8.13;3.00;;;;;;;;;;5028716;28;20038;-66
2022/10/07 01:09:49;;;;;;;10.00;3.38;;;;;;;;;;5028070;28;20048;-66
2022/10/07 01:12:25;;;;;;;9.15;3.20;;;;;;;;;;5028126;28;20089;-66
2022/10/07 01:15:04;;;;;;;5.55;2.58;;;;;;;;;;5008317;28;20049;-67
2022/10/07 01:17:30;;;;;;;6.90;2.95;;;;;;;;;;5027289;28;20136;-66
2022/10/07 01:20:03;;;;;;;5.32;2.60;;;;;;;;;;5028601;28;20037;-67
2022/10/07 01:22:37;;;;;;;11.60;3.13;;;;;;;;;;5028747;28;20056;-63
2022/10/07 01:25:16;;;;;;;9.95;3.20;;;;;;;;;;5028726;28;20033;-63
2022/10/07 01:27:46;;;;;;;9.45;2.83;;;;;;;;;;5027748;28;20636;-66
2022/10/07 01:30:13;;;;;;;5.97;2.70;;;;;;;;;;5029340;28;20792;-65
2022/10/07 01:32:39;;;;;;;10.10;2.92;;;;;;;;;;5028336;28;20045;-65
2022/10/07 01:35:12;;;;;;;6.75;3.10;;;;;;;;;;5027731;28;20056;-65
2022/10/07 01:37:41;;;;;;;8.35;3.30;;;;;;;;;;5027857;28;20164;-67
2022/10/07 01:40:13;;;;;;;5.93;2.83;;;;;;;;;;5011365;28;20037;-65
2022/10/07 01:42:40;;;;;;;6.35;2.72;;;;;;;;;;5020128;28;20104;-66
2022/10/07 01:45:09;;;;;;;10.13;3.20;;;;;;;;;;5018645;28;20064;-67
2022/10/07 01:47:36;;;;;;;5.68;2.67;;;;;;;;;;5027875;28;20045;-68
2022/10/07 01:50:06;;;;;;;7.38;3.20;;;;;;;;;;5031739;28;20121;-68
2022/10/07 01:52:47;;;;;;;14.50;3.15;;;;;;;;;;5014893;28;20037;-67
2022/10/07 01:55:32;;;;;;;8.80;3.28;;;;;;;;;;5031646;28;20040;-67
2022/10/07 01:58:07;;;;;;;7.30;3.17;;;;;;;;;;5032515;28;20135;-64
2022/10/07 02:00:38;;;;;;;8.85;3.35;;;;;;;;;;5031078;28;20045;-66
2022/10/07 02:03:04;;;;;;;6.45;3.10;;;;;;;;;;5014542;28;20041;-66
2022/10/07 02:05:39;;;;;;;12.75;3.50;;;;;;;;;;5030642;28;20053;-66
2022/10/07 02:08:12;;;;;;;10.43;3.67;;;;;;;;;;5031552;28;20056;-65
2022/10/07 02:10:54;;;;;;;8.52;3.20;;;;;;;;;;5031034;28;20071;-65
2022/10/07 02:13:32;;;;;;;11.07;3.53;;;;;;;;;;5031122;28;20461;-68
2022/10/07 02:15:58;;;;;;;12.25;4.10;;;;;;;;;;5017694;28;20054;-66
2022/10/07 02:18:27;;;;;;;9.63;3.70;;;;;;;;;;5031582;28;21859;-64
2022/10/07 02:20:54;;;;;;;11.90;3.35;;;;;;;;;;5031737;28;20581;-67
2022/10/07 02:23:21;;;;;;;12.10;4.32;;;;;;;;;;5031411;28;20050;-67
2022/10/07 02:25:50;;;;;;;12.20;3.58;;;;;;;;;;5032286;28;20270;-65
2022/10/07 02:28:19;;;;;;;6.97;3.25;;;;;;;;;;5031699;28;20075;-63
2022/10/07 02:30:47;;;;;;;8.38;3.67;;;;;;;;;;5031393;28;20102;-65
2022/10/07 02:33:14;;;;;;;7.05;3.55;;;;;;;;;;5032348;28;20041;-64
2022/10/07 02:35:47;;;;;;;7.32;3.75;;;;;;;;;;5031124;28;21863;-64
2022/10/07 02:38:13;;;;;;;;;;;;;;;;;;5031846;28;20051;-65
2022/10/07 02:40:43;;;;;;;10.48;3.75;;;;;;;;;;5031292;28;20604;-66
2022/10/07 02:43:24;;;;;;;11.90;4.32;;;;;;;;;;5031251;28;20063;-65
2022/10/07 02:46:19;;;;;;;9.98;4.35;;;;;;;;;;5030453;28;20093;-66
2022/10/07 02:48:52;;;;;;;8.27;4.15;;;;;;;;;;4993921;28;20046;-65
2022/10/07 02:51:20;;;;;;;9.93;4.47;;;;;;;;;;5032104;28;20044;-64
2022/10/07 02:53:48;;;;;;;14.60;3.92;;;;;;;;;;5029966;28;20521;-65
2022/10/07 02:56:17;;;;;;;9.77;3.95;;;;;;;;;;5019221;28;20049;-64
2022/10/07 02:58:45;;;;;;;14.10;4.97;;;;;;;;;;5030393;28;20106;-64
2022/10/07 03:01:16;;;;;;;12.30;4.97;;;;;;;;;;5030480;28;20045;-65
2022/10/07 03:03:43;;;;;;;11.63;4.55;;;;;;;;;;5029792;28;20045;-66
2022/10/07 03:06:12;;;;;;;10.98;4.72;;;;;;;;;;5014772;28;20045;-64
2022/10/07 03:08:39;;;;;;;14.80;4.97;;;;;;;;;;5032618;28;20367;-64
2022/10/07 03:11:05;;;;;;;13.63;5.30;;;;;;;;;;5031913;28;20037;-66
2022/10/07 03:13:34;;;;;;;9.77;5.13;;;;;;;;;;5028520;28;20461;-66
2022/10/07 03:16:03;;;;;;;11.55;5.10;;;;;;;;;;5030945;28;20049;-65
2022/10/07 03:18:30;;;;;;;8.40;5.10;;;;;;;;;;5030611;28;20142;-63
2022/10/07 03:20:58;;;;;;;8.55;4.72;;;;;;;;;;5030929;28;20065;-64
2022/10/07 03:23:26;;;;;;;10.23;5.20;;;;;;;;;;5029973;28;20049;-65
2022/10/07 03:25:53;;;;;;;9.88;5.00;;;;;;;;;;5031155;28;20033;-64
2022/10/07 03:28:21;;;;;;;12.18;4.57;;;;;;;;;;5030782;28;20037;-66
2022/10/07 03:30:48;;;;;;;15.25;5.18;;;;;;;;;;5032173;28;20094;-64
2022/10/07 03:33:20;;;;;;;11.85;4.93;;;;;;;;;;5035097;28;20052;-63
2022/10/07 03:35:46;;;;;;;16.33;7.47;;;;;;;;;;5031632;28;20135;-60
2022/10/07 03:38:13;;;;;;;7.78;4.90;;;;;;;;;;5033694;28;20060;-64
2022/10/07 03:40:40;;;;;;;10.13;4.90;;;;;;;;;;5034576;28;20044;-63
2022/10/07 03:43:08;;;;;;;11.10;5.10;;;;;;;;;;5034730;28;20126;-64
2022/10/07 03:45:37;;;;;;;11.32;5.53;;;;;;;;;;5033737;28;20033;-68
2022/10/07 03:48:03;;;;;;;11.10;5.65;;;;;;;;;;5030511;28;20033;-65
2022/10/07 03:50:30;;;;;;;9.13;5.50;;;;;;;;;;5028308;28;20075;-65
2022/10/07 03:52:57;;;;;;;10.20;5.32;;;;;;;;;;5030789;28;20037;-65
2022/10/07 03:55:23;;;;;;;9.63;5.40;;;;;;;;;;5028778;28;20036;-66
2022/10/07 03:57:50;;;;;;;13.25;6.10;;;;;;;;;;5029716;28;20544;-65
2022/10/07 04:00:19;;;;;;;9.00;5.82;;;;;;;;;;5029983;28;20055;-65
2022/10/07 04:02:46;;;;;;;14.85;6.25;;;;;;;;;;5028455;28;20646;-67
2022/10/07 04:05:16;;;;;;;10.30;5.65;;;;;;;;;;5030472;28;20044;-65
2022/10/07 04:07:44;;;;;;;14.32;6.00;;;;;;;;;;5029308;28;20053;-66
2022/10/07 04:10:12;;;;;;;10.32;5.50;;;;;;;;;;5030433;28;20033;-66
2022/10/07 04:12:39;;;;;;;14.40;6.05;;;;;;;;;;5028177;28;20029;-66
2022/10/07 04:15:06;;;;;;;12.25;5.90;;;;;;;;;;5031257;28;20371;-63
2022/10/07 04:17:32;;;;;;;14.48;6.15;;;;;;;;;;5028777;28;20064;-65
2022/10/07 04:19:59;;;;;;;14.02;6.45;;;;;;;;;;5030498;28;20505;-65
2022/10/07 04:22:26;;;;;;;10.18;5.93;;;;;;;;;;5030165;28;20110;-65
2022/10/07 04:27:38;;;;;;;12.18;7.03;;;;;;;;;;5029451;28;20503;-64
2022/10/07 04:30:05;;;;;;;14.43;6.22;;;;;;;;;;5031553;28;20045;-65
2022/10/07 04:32:32;;;;;;;15.70;6.40;;;;;;;;;;5029512;28;20040;-65
2022/10/07 04:35:02;;;;;;;14.05;7.18;;;;;;;;;;5029528;28;20044;-65
2022/10/07 04:37:29;;;;;;;13.68;6.57;;;;;;;;;;5032664;28;20063;-66
2022/10/07 04:39:56;;;;;;;12.88;6.25;;;;;;;;;;5030597;28;20500;-65
2022/10/07 04:45:08;;;;;;;18.20;6.88;;;;;;;;;;5028447;28;21707;-65
2022/10/07 04:47:34;;;;;;;14.80;6.47;;;;;;;;;;5029066;28;20039;-65
2022/10/07 04:50:02;;;;;;;12.55;6.43;;;;;;;;;;5030000;28;20990;-67
2022/10/07 04:52:29;;;;;;;11.20;6.85;;;;;;;;;;5029403;28;20034;-65
2022/10/07 04:54:55;;;;;;;12.15;6.28;;;;;;;;;;5029328;28;20044;-65
2022/10/07 04:57:22;;;;;;;16.20;7.00;;;;;;;;;;5027801;28;20098;-66
2022/10/07 04:59:49;;;;;;;13.68;7.05;;;;;;;;;;5029784;28;20095;-66
2022/10/07 05:02:15;;;;;;;13.90;7.22;;;;;;;;;;5029548;28;20120;-64
2022/10/07 05:04:43;;;;;;;14.80;6.85;;;;;;;;;;5012125;28;20048;-65
2022/10/07 05:07:10;;;;;;;15.88;7.43;;;;;;;;;;5029405;28;20124;-67
2022/10/07 05:09:37;;;;;;;16.95;7.50;;;;;;;;;;5028508;28;20071;-65
2022/10/07 05:12:04;;;;;;;12.70;6.68;;;;;;;;;;5029625;28;20068;-65
2022/10/07 05:14:31;;;;;;;13.70;6.65;;;;;;;;;;5027598;28;20110;-66
2022/10/07 05:16:58;;;;;;;13.65;7.15;;;;;;;;;;5028030;28;20099;-65
2022/10/07 05:19:25;;;;;;;13.80;6.97;;;;;;;;;;5027534;28;20716;-66
2022/10/07 05:21:52;;;;;;;14.05;6.72;;;;;;;;;;5028608;28;20057;-65
2022/10/07 05:24:19;;;;;;;12.00;7.13;;;;;;;;;;5029742;28;22276;-68
2022/10/07 05:26:45;;;;;;;16.00;7.35;;;;;;;;;;5032882;28;20045;-66
2022/10/07 05:29:12;;;;;;;16.25;7.35;;;;;;;;;;5032718;28;20061;-65
2022/10/07 05:31:38;;;;;;;20.30;7.90;;;;;;;;;;5032383;28;21100;-65
2022/10/07 05:34:05;;;;;;;16.67;7.32;;;;;;;;;;5032485;28;20037;-65
2022/10/07 05:36:32;;;;;;;19.35;8.68;;;;;;;;;;5031682;28;20528;-65
2022/10/07 05:38:58;;;;;;;15.50;8.23;;;;;;;;;;5033311;28;20037;-66
2022/10/07 05:41:27;;;;;;;16.23;8.18;;;;;;;;;;5032078;28;20052;-65
2022/10/07 05:43:53;;;;;;;16.70;7.32;;;;;;;;;;5032391;28;20040;-65
2022/10/07 05:46:21;;;;;;;15.75;6.63;;;;;;;;;;5031609;28;20049;-66
2022/10/07 05:48:50;;;;;;;14.45;7.13;;;;;;;;;;5032947;28;20041;-65
2022/10/07 05:51:17;;;;;;;13.13;7.28;;;;;;;;;;5033623;28;20045;-66
2022/10/07 05:53:45;;;;;;;15.82;7.85;;;;;;;;;;5032043;28;20041;-65
2022/10/07 05:56:14;;;;;;;20.90;7.43;;;;;;;;;;5030954;28;20096;-65
2022/10/07 05:58:41;;;;;;;17.75;6.93;;;;;;;;;;5032758;28;20436;-63
2022/10/07 06:01:12;;;;;;;28.63;7.70;;;;;;;;;;5033525;28;20037;-64
2022/10/07 06:03:38;;;;;;;20.45;8.07;;;;;;;;;;5032750;28;20040;-65
2022/10/07 06:06:06;;;;;;;15.27;8.02;;;;;;;;;;5031652;28;20132;-64
2022/10/07 06:08:32;;;;;;;19.05;8.18;;;;;;;;;;5032114;28;20041;-60
2022/10/07 06:13:48;;;;;;;17.95;8.13;;;;;;;;;;5030771;28;20051;-63
2022/10/07 06:16:15;;;;;;;14.80;7.72;;;;;;;;;;5032584;28;20052;-64
2022/10/07 06:18:41;;;;;;;16.77;7.93;;;;;;;;;;5031356;28;20562;-65
2022/10/07 06:21:08;;;;;;;17.17;7.97;;;;;;;;;;5031972;28;20083;-64
2022/10/07 06:23:35;;;;;;;17.30;7.57;;;;;;;;;;5030557;28;20029;-65
2022/10/07 06:26:03;;;;;;;17.15;8.77;;;;;;;;;;5032538;28;20096;-65
2022/10/07 06:28:37;;;;;;;17.70;8.82;;;;;;;;;;5018204;28;20041;-64
2022/10/07 06:31:04;;;;;;;18.38;8.52;;;;;;;;;;5031330;28;20044;-65
2022/10/07 06:33:31;;;;;;;19.83;8.45;;;;;;;;;;5029691;28;20584;-65
2022/10/07 06:35:57;;;;;;;16.35;8.25;;;;;;;;;;5031226;28;20064;-65
2022/10/07 06:38:24;;;;;;;18.08;9.05;;;;;;;;;;5030583;28;20202;-63
2022/10/07 06:40:57;;;;;;;19.15;9.23;;;;;;;;;;5031415;28;20049;-66
2022/10/07 06:43:25;;;;;;;19.65;8.93;;;;;;;;;;5030199;28;20041;-65
2022/10/07 06:45:51;;;;;;;24.55;9.20;;;;;;;;;;5031626;28;20566;-62
2022/10/07 06:48:19;;;;;;;21.52;8.80;;;;;;;;;;5031404;28;20909;-65
2022/10/07 06:50:51;;;;;;;19.13;9.05;;;;;;;;;;5030810;28;20501;-64
2022/10/07 06:53:18;;;;;;;15.90;8.75;;;;;;;;;;5012842;28;20528;-65
2022/10/07 06:55:45;;;;;;;18.92;9.15;;;;;;;;;;5031640;28;20525;-64
2022/10/07 06:58:11;;;;;;;19.08;9.25;;;;;;;;;;5031478;28;20186;-64
2022/10/07 07:00:38;;;;;;;25.95;8.95;;;;;;;;;;5028061;28;20040;-66
2022/10/07 07:03:05;;;;;;;15.18;8.77;;;;;;;;;;5013985;28;20573;-65
2022/10/07 07:05:34;;;;;;;15.98;8.68;;;;;;;;;;5029278;28;20052;-65
2022/10/07 07:08:00;;;;;;;18.35;9.05;;;;;;;;;;5031718;28;20151;-63
2022/10/07 07:10:27;;;;;;;18.23;9.30;;;;;;;;;;5030778;28;20037;-64
2022/10/07 07:12:54;;;;;;;15.43;9.13;;;;;;;;;;5030902;28;20363;-63
2022/10/07 07:15:21;;;;;;;20.00;9.15;;;;;;;;;;5029804;28;20033;-64
2022/10/07 07:17:47;;;;;;;19.55;9.95;;;;;;;;;;5030391;28;20385;-64
2022/10/07 07:20:14;;;;;;;18.10;9.25;;;;;;;;;;5031147;28;20439;-62
2022/10/07 07:22:42;;;;;;;17.92;9.45;;;;;;;;;;5031107;28;20032;-63
2022/10/07 07:25:09;;;;;;;23.13;9.55;;;;;;;;;;5030288;28;20045;-64
2022/10/07 07:27:36;;;;;;;24.15;9.82;;;;;;;;;;5029416;28;20041;-68
2022/10/07 07:30:03;;;;;;;21.48;9.65;;;;;;;;;;5031416;28;20038;-62
2022/10/07 07:32:29;;;;;;;21.70;9.65;;;;;;;;;;5029736;28;20045;-63
2022/10/07 07:34:59;;;;;;;21.00;9.85;;;;;;;;;;5029959;28;20045;-64
2022/10/07 07:37:28;;;;;;;18.45;10.85;;;;;;;;;;5030472;28;20061;-62
2022/10/07 07:39:55;;;;;;;24.00;11.55;;;;;;;;;;5030783;28;20115;-64
2022/10/07 07:42:21;;;;;;;17.75;10.45;;;;;;;;;;5030391;28;20041;-65
2022/10/07 07:44:48;;;;;;;19.75;11.02;;;;;;;;;;5030743;28;20600;-63
2022/10/07 07:47:15;;;;;;;24.08;10.75;;;;;;;;;;5029733;28;20041;-64
2022/10/07 07:49:42;;;;;;;20.45;11.18;;;;;;;;;;5029769;28;20049;-64
2022/10/07 07:52:09;;;;;;;20.30;10.73;;;;;;;;;;5029478;28;20038;-64
2022/10/07 07:54:40;;;;;;;20.92;10.73;;;;;;;;;;5029781;28;20044;-64
2022/10/07 07:57:07;;;;;;;19.27;10.95;;;;;;;;;;5028509;28;20044;-64
2022/10/07 07:59:36;;;;;;;18.20;9.82;;;;;;;;;;5029140;28;20132;-65
2022/10/07 08:02:03;;;;;;;17.92;10.10;;;;;;;;;;5029971;28;20760;-63
2022/10/07 08:04:29;;;;;;;20.95;11.18;;;;;;;;;;5028552;28;20057;-64
2022/10/07 08:06:56;;;;;;;21.10;10.82;;;;;;;;;;5028357;28;20044;-65
2022/10/07 08:09:23;;;;;;;20.02;11.02;;;;;;;;;;5028384;28;20036;-64
2022/10/07 08:11:50;;;;;;;20.77;10.52;;;;;;;;;;5030241;28;20038;-64
2022/10/07 08:14:17;;;;;;;21.35;11.20;;;;;;;;;;5016475;28;20037;-65
2022/10/07 08:16:43;;;;;;;22.05;10.60;;;;;;;;;;5029553;28;20052;-62
2022/10/07 08:19:14;;;;;;;21.92;10.45;;;;;;;;;;5029875;28;20067;-62
2022/10/07 08:21:40;;;;;;;21.42;11.27;;;;;;;;;;5029620;28;20045;-64
2022/10/07 08:24:08;;;;;;;17.52;10.27;;;;;;;;;;5029519;28;20422;-62
2022/10/07 08:26:36;;;;;;;14.10;9.43;;;;;;;;;;5028216;28;20067;-64
2022/10/07 08:29:04;;;;;;;17.55;9.93;;;;;;;;;;5029380;28;20035;-65
2022/10/07 08:31:30;;;;;;;15.73;9.18;;;;;;;;;;5028978;28;20048;-66
2022/10/07 08:33:58;;;;;;;18.73;9.75;;;;;;;;;;5029079;28;20385;-63
2022/10/07 08:36:26;;;;;;;18.98;9.65;;;;;;;;;;5029474;28;20081;-64
2022/10/07 08:38:52;;;;;;;21.25;10.15;;;;;;;;;;5021755;28;20044;-65
2022/10/07 08:41:19;;;;;;;18.13;9.50;;;;;;;;;;5028731;28;20806;-66
2022/10/07 08:43:48;;;;;;;17.15;9.73;;;;;;;;;;5029490;28;20049;-64
2022/10/07 08:46:19;;;;;;;15.88;8.98;;;;;;;;;;5030122;28;20087;-64
2022/10/07 08:48:51;;;;;;;15.20;9.10;;;;;;;;;;5031003;28;20045;-64
2022/10/07 08:51:24;;;;;;;20.60;9.25;;;;;;;;;;5014189;28;20041;-66
2022/10/07 08:53:52;;;;;;;19.00;8.30;;;;;;;;;;5028450;28;20033;-64
2022/10/07 08:56:22;;;;;;;21.75;8.77;;;;;;;;;;5029779;28;20057;-66
2022/10/07 08:58:59;;;;;;;14.63;8.43;;;;;;;;;;5028875;28;20053;-64
2022/10/07 09:01:34;;;;;;;17.08;8.85;;;;;;;;;;5030156;28;20056;-64
2022/10/07 09:04:21;;;;;;;22.88;10.13;;;;;;;;;;5028434;28;20478;-65
2022/10/07 09:07:00;;;;;;;18.30;9.30;;;;;;;;;;5012230;28;20060;-65
2022/10/07 09:09:30;;;;;;;16.27;9.90;;;;;;;;;;5029170;28;20051;-64
2022/10/07 09:11:57;;;;;;;15.80;9.00;;;;;;;;;;5029632;28;20099;-64
2022/10/07 09:14:41;;;;;;;18.65;9.02;;;;;;;;;;5028113;28;20049;-66
2022/10/07 09:17:12;;;;;;;19.45;9.95;;;;;;;;;;5016396;28;21145;-63
2022/10/07 09:19:44;;;;;;;20.45;10.07;;;;;;;;;;5028741;28;20943;-64
2022/10/07 09:22:20;;;;;;;18.42;9.95;;;;;;;;;;5012508;28;20055;-65
2022/10/07 09:24:58;;;;;;;18.92;9.65;;;;;;;;;;5027676;28;20037;-64
2022/10/07 09:27:25;;;;;;;21.20;10.32;;;;;;;;;;5028625;28;20057;-65
2022/10/07 09:29:52;;;;;;;16.20;9.75;;;;;;;;;;5030849;28;20039;-64
2022/10/07 09:32:19;;;;;;;16.73;10.10;;;;;;;;;;5030772;28;20065;-64
2022/10/07 09:34:46;;;;;;;27.60;10.18;;;;;;;;;;5027221;28;20405;-66
2022/10/07 09:37:13;;;;;;;16.42;9.60;;;;;;;;;;5029108;28;20235;-66
2022/10/07 09:39:40;;;;;;;17.52;9.75;;;;;;;;;;5028502;28;20126;-64
2022/10/07 09:42:08;;;;;;;19.98;10.40;;;;;;;;;;5016347;28;20533;-65
2022/10/07 09:44:38;;;;;;;19.13;10.65;;;;;;;;;;5027922;28;20087;-64
2022/10/07 09:47:28;;;;;;;20.63;9.95;;;;;;;;;;5030311;28;20123;-64
2022/10/07 09:49:58;;;;;;;16.85;10.32;;;;;;;;;;5030476;28;20110;-64
2022/10/07 09:52:31;;;;;;;22.88;10.98;;;;;;;;;;5029304;28;20473;-64
2022/10/07 09:55:17;;;;;;;17.02;8.52;;;;;;;;;;5030022;28;20045;-65
2022/10/07 09:57:58;;;;;;;17.30;10.10;;;;;;;;;;5015725;28;20410;-64
2022/10/07 10:00:25;;;;;;;26.40;10.50;;;;;;;;;;5028239;28;20476;-64
2022/10/07 10:02:59;;;;;;;24.38;11.43;;;;;;;;;;5027682;28;20040;-64
2022/10/07 10:05:30;;;;;;;17.25;10.07;;;;;;;;;;5032298;28;20056;-64
2022/10/07 10:07:58;;;;;;;19.17;10.27;;;;;;;;;;5028204;28;20193;-65
2022/10/07 10:10:35;;;;;;;25.80;10.45;;;;;;;;;;5030706;28;20037;-64
2022/10/07 10:13:03;;;;;;;18.88;9.80;;;;;;;;;;5032756;28;20040;-63
2022/10/07 10:15:37;;;;;;;20.75;11.00;;;;;;;;;;5031554;28;20069;-65
2022/10/07 10:18:03;;;;;;;;;;;;;;;;;;5032905;28;20140;-64
2022/10/07 10:20:32;;;;;;;19.73;10.18;;;;;;;;;;5031577;28;19925;-65
2022/10/07 10:23:00;;;;;;;20.10;11.35;;;;;;;;;;5032361;28;20455;-64
2022/10/07 10:28:34;;;;;;;17.73;10.38;;;;;;;;;;5032854;28;20052;-64
2022/10/07 10:31:09;;;;;;;18.17;9.40;;;;;;;;;;5031468;28;20118;-65
2022/10/07 10:33:46;;;;;;;17.58;10.52;;;;;;;;;;5030601;28;20044;-65
2022/10/07 10:36:16;;;;;;;21.98;11.00;;;;;;;;;;5031946;28;20081;-60
2022/10/07 10:38:45;;;;;;;17.20;10.38;;;;;;;;;;5031581;28;20033;-63
2022/10/07 10:41:27;;;;;;;20.77;10.38;;;;;;;;;;5033833;28;20508;-63
2022/10/07 10:44:15;;;;;;;19.33;11.13;;;;;;;;;;5031084;28;20489;-63
2022/10/07 10:46:47;;;;;;;21.60;9.50;;;;;;;;;;5032067;28;20048;-64
2022/10/07 10:49:18;;;;;;;20.23;9.30;;;;;;;;;;5031732;28;20737;-63
2022/10/07 10:51:54;;;;;;;16.25;10.15;;;;;;;;;;5030523;28;20041;-64
2022/10/07 10:54:39;;;;;;;17.33;9.68;;;;;;;;;;5030215;28;20045;-64
2022/10/07 10:57:13;;;;;;;19.48;10.25;;;;;;;;;;5031617;28;20140;-63
2022/10/07 10:59:58;;;;;;;20.15;10.40;;;;;;;;;;5031152;28;20046;-63
2022/10/07 11:02:25;;;;;;;15.93;9.48;;;;;;;;;;5016554;28;20044;-65
2022/10/07 11:05:04;;;;;;;24.40;11.38;;;;;;;;;;5030284;28;20049;-64
2022/10/07 11:07:33;;;;;;;18.88;10.80;;;;;;;;;;5031630;28;20051;-64
2022/10/07 11:10:07;;;;;;;18.15;10.95;;;;;;;;;;5032062;28;20045;-64
2022/10/07 11:12:35;;;;;;;;;;;;;;;;;;5031219;28;20136;-65
2022/10/07 11:15:06;;;;;;;19.50;10.27;;;;;;;;;;5031886;28;19916;-66
2022/10/07 11:17:36;;;;;;;20.63;10.63;;;;;;;;;;5017046;28;20470;-64
2022/10/07 11:20:21;;;;;;;17.77;10.05;;;;;;;;;;5030258;28;20052;-65
2022/10/07 11:22:55;;;;;;;23.15;10.52;;;;;;;;;;5030099;28;20135;-64
2022/10/07 11:25:30;;;;;;;22.98;11.23;;;;;;;;;;5031288;28;22275;-64
2022/10/07 11:28:01;;;;;;;19.73;10.02;;;;;;;;;;5031526;28;20045;-63
2022/10/07 11:30:30;;;;;;;20.67;11.15;;;;;;;;;;5030788;28;20037;-64
2022/10/07 11:33:27;;;;;;;19.85;11.60;;;;;;;;;;5031275;28;20072;-64
2022/10/07 11:35:57;;;;;;;18.77;10.90;;;;;;;;;;4960836;28;20105;-63
2022/10/07 11:38:30;;;;;;;22.00;10.43;;;;;;;;;;5031506;28;20040;-63
2022/10/07 11:41:00;;;;;;;30.40;11.23;;;;;;;;;;5030142;28;20566;-62
2022/10/07 11:43:40;;;;;;;25.60;11.18;;;;;;;;;;5028981;28;20074;-63
2022/10/07 11:46:15;;;;;;;19.52;10.30;;;;;;;;;;5030255;28;20037;-62
2022/10/07 11:48:48;;;;;;;16.83;10.40;;;;;;;;;;5029086;28;20044;-66
2022/10/07 11:51:23;;;;;;;20.05;10.80;;;;;;;;;;5030876;28;20044;-61
2022/10/07 11:53:52;;;;;;;19.17;10.77;;;;;;;;;;5029980;28;20045;-64
2022/10/07 11:56:21;;;;;;;17.33;10.80;;;;;;;;;;5029517;28;20263;-64
2022/10/07 11:58:56;;;;;;;16.65;10.13;;;;;;;;;;5029084;28;20051;-65
2022/10/07 12:01:27;;;;;;;15.13;9.50;;;;;;;;;;5028438;28;20397;-64
2022/10/07 12:04:14;;;;;;;20.02;10.50;;;;;;;;;;5016656;28;20720;-64
2022/10/07 12:07:02;;;;;;;18.25;9.60;;;;;;;;;;5029914;28;20084;-64
2022/10/07 12:09:47;;;;;;;19.67;9.88;;;;;;;;;;5030100;28;20040;-65
2022/10/07 12:12:14;;;;;;;21.52;10.05;;;;;;;;;;5028912;28;20033;-65
2022/10/07 12:14:42;;;;;;;16.85;9.05;;;;;;;;;;5030017;28;20079;-65
2022/10/07 12:17:20;;;;;;;19.23;9.85;;;;;;;;;;5029697;28;20064;-66
2022/10/07 12:19:46;;;;;;;19.00;9.32;;;;;;;;;;5028825;28;20398;-67
2022/10/07 12:22:14;;;;;;;20.30;10.55;;;;;;;;;;5029195;28;20565;-60
2022/10/07 12:24:44;;;;;;;20.70;10.23;;;;;;;;;;5029919;28;20041;-60
2022/10/07 12:27:14;;;;;;;24.13;9.82;;;;;;;;;;5030385;28;20037;-64
2022/10/07 12:30:01;;;;;;;20.25;8.90;;;;;;;;;;5028170;28;20049;-64
2022/10/07 12:32:46;;;;;;;24.95;10.18;;;;;;;;;;5027256;28;20434;-65
2022/10/07 12:35:33;;;;;;;21.08;9.85;;;;;;;;;;5029044;28;20052;-64
2022/10/07 12:38:18;;;;;;;18.55;9.93;;;;;;;;;;5029533;28;20165;-64
2022/10/07 12:40:59;;;;;;;17.88;9.90;;;;;;;;;;5028701;28;20041;-64
2022/10/07 12:43:32;;;;;;;17.77;9.40;;;;;;;;;;5029382;28;20437;-64
2022/10/07 12:45:59;;;;;;;18.38;9.93;;;;;;;;;;5029955;28;20794;-64
2022/10/07 12:48:27;;;;;;;22.35;9.80;;;;;;;;;;5028663;28;20048;-63
2022/10/07 12:50:55;;;;;;;16.17;9.30;;;;;;;;;;5028782;28;20037;-64
2022/10/07 12:53:24;;;;;;;20.88;10.13;;;;;;;;;;5028261;28;20049;-63
2022/10/07 12:55:53;;;;;;;23.10;10.43;;;;;;;;;;5029078;28;20041;-65
2022/10/07 13:01:31;;;;;;;22.88;10.48;;;;;;;;;;5026728;28;20044;-63
2022/10/07 13:04:15;;;;;;;22.63;9.82;;;;;;;;;;5029496;28;20555;-63
2022/10/07 13:07:01;;;;;;;20.85;10.85;;;;;;;;;;5029159;28;20136;-63
2022/10/07 13:09:30;;;;;;;18.50;10.35;;;;;;;;;;5029872;28;20132;-62
2022/10/07 13:12:00;;;;;;;20.17;10.70;;;;;;;;;;5029026;28;20069;-63
2022/10/07 13:14:41;;;;;;;15.77;10.00;;;;;;;;;;5026838;28;20092;-63
2022/10/07 13:17:20;;;;;;;25.40;11.50;;;;;;;;;;5028728;28;20162;-64
2022/10/07 13:20:12;;;;;;;23.05;10.85;;;;;;;;;;5029014;28;20393;-63
2022/10/07 13:22:44;;;;;;;20.23;10.05;;;;;;;;;;5024553;28;20056;-62
2022/10/07 13:25:11;;;;;;;21.25;10.63;;;;;;;;;;5033664;28;20033;-63
2022/10/07 13:27:40;;;;;;;16.88;9.85;;;;;;;;;;5031871;28;20040;-64
2022/10/07 13:30:09;;;;;;;16.90;10.43;;;;;;;;;;5033044;28;20164;-63
2022/10/07 13:32:35;;;;;;;18.60;10.35;;;;;;;;;;5027144;28;20059;-65
2022/10/07 13:35:37;;;;;;;20.92;10.75;;;;;;;;;;5028386;28;20040;-63
2022/10/07 13:38:04;;;;;;;18.70;10.50;;;;;;;;;;4916244;29;20070;-64
2022/10/07 13:40:34;;;;;;;21.73;10.50;;;;;;;;;;5008535;28;20036;-61
2022/10/07 13:43:02;;;;;;;30.13;11.23;;;;;;;;;;5029156;28;20049;-62
2022/10/07 13:45:32;;;;;;;18.77;10.90;;;;;;;;;;5030789;28;21002;-63
2022/10/07 13:47:59;;;;;;;26.92;11.55;;;;;;;;;;5034208;28;20033;-62
2022/10/07 13:50:29;;;;;;;17.92;10.27;;;;;;;;;;5018369;28;20516;-64
2022/10/07 13:52:56;;;;;;;23.35;11.32;;;;;;;;;;5032078;28;20227;-64
2022/10/07 13:55:27;;;;;;;25.17;10.85;;;;;;;;;;5031690;28;20033;-63
2022/10/07 13:57:59;;;;;;;20.58;11.63;;;;;;;;;;5032502;28;20064;-63
2022/10/07 14:00:26;;;;;;;22.25;11.00;;;;;;;;;;5029792;28;20082;-64
2022/10/07 14:02:53;;;;;;;26.10;11.50;;;;;;;;;;5031845;28;20029;-61
2022/10/07 14:05:21;;;;;;;26.52;11.15;;;;;;;;;;5032510;28;20560;-63
2022/10/07 14:07:52;;;;;;;24.65;11.18;;;;;;;;;;5030848;28;20079;-64
2022/10/07 14:10:19;;;;;;;24.88;11.35;;;;;;;;;;5031435;28;20045;-63
2022/10/07 14:12:48;;;;;;;23.35;11.93;;;;;;;;;;5030986;28;20049;-64
2022/10/07 14:15:18;;;;;;;27.58;11.95;;;;;;;;;;5031484;28;20299;-64
2022/10/07 14:17:46;;;;;;;22.63;11.93;;;;;;;;;;5030830;28;20732;-63
2022/10/07 14:20:21;;;;;;;21.35;11.57;;;;;;;;;;5013235;28;20159;-62
2022/10/07 14:22:49;;;;;;;21.55;12.02;;;;;;;;;;5030789;28;20480;-65
2022/10/07 14:25:18;;;;;;;25.85;12.65;;;;;;;;;;5031296;28;20037;-64
2022/10/07 14:27:52;;;;;;;30.23;12.98;;;;;;;;;;5030786;28;20036;-65
2022/10/07 14:36:12;;;;;;;23.38;14.77;;;;;;;;;;5030819;28;20060;-64
2022/10/07 14:38:39;;;;;;;31.50;14.70;;;;;;;;;;5030058;28;20029;-63
2022/10/07 14:41:07;;;;;;;25.67;13.50;;;;;;;;;;5030297;28;20076;-64
2022/10/07 14:43:34;;;;;;;26.10;13.70;;;;;;;;;;5028462;28;20033;-64
2022/10/07 14:46:08;;;;;;;30.88;13.57;;;;;;;;;;5030946;28;20796;-64
2022/10/07 14:48:35;;;;;;;27.17;13.00;;;;;;;;;;5029127;28;20502;-65
2022/10/07 14:51:02;;;;;;;23.13;13.05;;;;;;;;;;5029950;28;20041;-63
2022/10/07 14:53:28;;;;;;;24.98;13.60;;;;;;;;;;5031011;28;20044;-65
2022/10/07 14:55:55;;;;;;;24.40;13.10;;;;;;;;;;5029493;28;20409;-64
2022/10/07 14:58:24;;;;;;;29.17;13.70;;;;;;;;;;5029226;28;20638;-64
2022/10/07 15:00:53;;;;;;;26.05;13.07;;;;;;;;;;5029292;28;20036;-64
2022/10/07 15:03:20;;;;;;;23.92;12.98;;;;;;;;;;5030616;28;20044;-64
2022/10/07 15:05:47;;;;;;;26.67;12.13;;;;;;;;;;5030447;28;20529;-64